createdAt,value
2019-05-05T00:01:19.744Z,27.70
2019-05-05T00:04:14.767Z,27.80
2019-05-05T00:06:48.407Z,27.80
2019-05-05T00:09:20.919Z,27.80
2019-05-05T00:12:12.003Z,27.80
2019-05-05T00:15:02.646Z,27.90
2019-05-05T00:17:35.984Z,27.90
2019-05-05T00:20:14.518Z,27.90
2019-05-05T00:22:48.259Z,28.00
2019-05-05T00:25:22.315Z,28.00
2019-05-05T00:27:55.970Z,28.10
2019-05-05T00:30:30.112Z,28.10
2019-05-05T00:33:02.762Z,28.10
2019-05-05T00:35:36.576Z,28.20
2019-05-05T00:38:09.225Z,28.30
2019-05-05T00:40:44.198Z,28.30
2019-05-05T00:43:17.636Z,28.30
2019-05-05T00:45:51.413Z,28.30
2019-05-05T00:48:28.269Z,28.40
2019-05-05T00:51:04.509Z,28.40
2019-05-05T00:53:37.818Z,28.40
2019-05-05T00:56:10.557Z,28.50
2019-05-05T00:58:47.165Z,28.50
2019-05-05T01:01:20.992Z,28.60
2019-05-05T01:03:54.948Z,28.60
2019-05-05T01:06:29.882Z,28.60
2019-05-05T01:09:07.315Z,28.70
2019-05-05T01:11:41.459Z,28.70
2019-05-05T01:14:14.952Z,28.70
2019-05-05T01:16:48.395Z,28.80
2019-05-05T01:19:23.823Z,28.80
2019-05-05T01:21:56.307Z,28.80
2019-05-05T01:24:33.717Z,28.90
2019-05-05T01:27:07.567Z,29.00
2019-05-05T01:29:40.303Z,29.00
2019-05-05T01:32:15.317Z,29.10
2019-05-05T01:34:50.187Z,29.10
2019-05-05T01:37:44.188Z,29.10
2019-05-05T01:40:19.326Z,29.20
2019-05-05T01:42:54.748Z,29.20
2019-05-05T01:45:28.419Z,29.30
2019-05-05T01:48:01.383Z,29.40
2019-05-05T01:50:36.149Z,29.40
2019-05-05T01:53:10.046Z,29.50
2019-05-05T01:55:45.150Z,29.60
2019-05-05T01:58:18.130Z,29.70
2019-05-05T02:00:54.449Z,29.70
2019-05-05T02:03:26.439Z,29.80
2019-05-05T02:06:00.286Z,29.90
2019-05-05T02:08:34.886Z,30.00
2019-05-05T02:11:09.301Z,30.10
2019-05-05T02:13:42.696Z,30.20
2019-05-05T02:16:15.571Z,30.30
2019-05-05T02:18:49.425Z,30.30
2019-05-05T02:21:22.141Z,30.40
2019-05-05T02:23:55.361Z,30.40
2019-05-05T02:26:29.019Z,30.50
2019-05-05T02:29:14.120Z,30.50
2019-05-05T02:32:06.357Z,30.60
2019-05-05T02:34:45.530Z,30.70
2019-05-05T02:37:16.022Z,30.80
2019-05-05T02:39:58.046Z,30.90
2019-05-05T02:42:27.374Z,30.90
2019-05-05T02:45:05.561Z,31.00
2019-05-05T02:47:56.494Z,31.10
2019-05-05T02:50:48.241Z,31.20
2019-05-05T02:53:06.358Z,31.30
2019-05-05T02:55:39.217Z,31.30
2019-05-05T02:58:13.970Z,31.40
2019-05-05T03:01:07.410Z,31.50
2019-05-05T03:03:43.798Z,31.60
2019-05-05T03:06:17.101Z,31.70
2019-05-05T03:08:54.131Z,31.80
2019-05-05T03:11:27.197Z,31.80
2019-05-05T03:14:04.064Z,31.90
2019-05-05T03:16:38.702Z,32.00
2019-05-05T03:19:14.242Z,32.10
2019-05-05T03:21:48.559Z,32.10
2019-05-05T03:24:23.594Z,32.10
2019-05-05T03:26:57.637Z,32.20
2019-05-05T03:29:33.591Z,32.30
2019-05-05T03:32:11.244Z,32.30
2019-05-05T03:34:41.744Z,32.40
2019-05-05T03:37:14.966Z,32.40
2019-05-05T03:39:53.615Z,32.60
2019-05-05T03:42:44.092Z,32.70
2019-05-05T03:45:18.601Z,32.80
2019-05-05T03:47:54.112Z,32.80
2019-05-05T03:50:28.155Z,33.00
2019-05-05T03:53:01.195Z,33.10
2019-05-05T03:55:34.526Z,33.30
2019-05-05T03:58:08.040Z,33.40
2019-05-05T04:00:58.218Z,33.50
2019-05-05T04:03:34.030Z,33.60
2019-05-05T04:06:10.185Z,33.70
2019-05-05T04:08:44.553Z,33.70
2019-05-05T04:11:17.847Z,33.80
2019-05-05T04:13:54.953Z,33.80
2019-05-05T04:16:29.887Z,33.80
2019-05-05T04:19:06.034Z,33.90
2019-05-05T04:21:39.968Z,34.00
2019-05-05T04:24:14.538Z,34.10
2019-05-05T04:26:47.265Z,34.20
2019-05-05T04:29:24.436Z,34.30
2019-05-05T04:32:00.288Z,34.30
2019-05-05T04:34:34.716Z,34.40
2019-05-05T04:37:09.193Z,34.50
2019-05-05T04:39:44.397Z,34.50
2019-05-05T04:42:18.435Z,34.70
2019-05-05T04:44:53.711Z,34.80
2019-05-05T04:47:27.967Z,34.90
2019-05-05T04:50:04.348Z,35.00
2019-05-05T04:52:37.124Z,35.00
2019-05-05T04:55:13.802Z,35.10
2019-05-05T04:57:47.731Z,35.20
2019-05-05T05:00:24.029Z,35.30
2019-05-05T05:03:16.847Z,35.30
2019-05-05T05:05:55.192Z,35.20
2019-05-05T05:08:28.981Z,35.20
2019-05-05T05:11:03.684Z,35.20
2019-05-05T05:13:36.321Z,35.30
2019-05-05T05:16:10.943Z,35.30
2019-05-05T05:18:44.621Z,35.30
2019-05-05T05:21:18.981Z,35.40
2019-05-05T05:23:53.646Z,35.50
2019-05-05T05:26:29.490Z,35.60
2019-05-05T05:29:04.575Z,35.70
2019-05-05T05:31:37.545Z,35.60
2019-05-05T05:34:10.392Z,35.60
2019-05-05T05:36:44.494Z,35.70
2019-05-05T05:39:37.866Z,35.80
2019-05-05T05:42:10.733Z,35.80
2019-05-05T05:44:46.711Z,35.80
2019-05-05T05:47:21.865Z,35.90
2019-05-05T05:49:57.146Z,36.00
2019-05-05T05:52:31.085Z,36.10
2019-05-05T05:55:04.177Z,36.20
2019-05-05T05:57:37.258Z,36.30
2019-05-05T06:00:10.905Z,36.40
2019-05-05T06:02:46.350Z,36.40
2019-05-05T06:05:19.187Z,36.60
2019-05-05T06:07:54.441Z,36.70
2019-05-05T06:10:28.609Z,36.80
2019-05-05T06:13:04.136Z,36.90
2019-05-05T06:15:41.053Z,37.00
2019-05-05T06:18:13.998Z,37.10
2019-05-05T06:20:48.182Z,37.30
2019-05-05T06:23:24.222Z,37.30
2019-05-05T06:25:58.274Z,37.40
2019-05-05T06:28:34.042Z,37.40
2019-05-05T06:31:09.178Z,37.50
2019-05-05T06:33:43.833Z,37.50
2019-05-05T06:36:20.691Z,37.50
2019-05-05T06:38:55.044Z,37.60
2019-05-05T06:41:29.982Z,37.60
2019-05-05T06:44:20.891Z,37.70
2019-05-05T06:47:10.864Z,37.70
2019-05-05T06:49:45.184Z,37.80
2019-05-05T06:52:19.426Z,37.90
2019-05-05T06:54:54.272Z,37.90
2019-05-05T06:57:27.970Z,37.80
2019-05-05T07:00:03.693Z,37.70
2019-05-05T07:02:37.381Z,37.60
2019-05-05T07:05:10.177Z,37.50
2019-05-05T07:07:43.543Z,37.40
2019-05-05T07:10:19.817Z,37.40
2019-05-05T07:12:54.382Z,37.40
2019-05-05T07:15:27.479Z,37.40
2019-05-05T07:18:00.874Z,37.30
2019-05-05T07:20:37.171Z,37.30
2019-05-05T07:23:11.043Z,37.30
2019-05-05T07:25:46.052Z,37.30
2019-05-05T07:28:20.388Z,37.40
2019-05-05T07:30:54.774Z,37.30
2019-05-05T07:33:28.343Z,37.40
2019-05-05T07:36:19.597Z,37.20
2019-05-05T07:38:54.525Z,37.10
2019-05-05T07:41:26.183Z,37.20
2019-05-05T07:43:59.589Z,37.10
2019-05-05T07:46:34.459Z,37.20
2019-05-05T07:49:06.655Z,37.20
2019-05-05T07:51:40.549Z,37.20
2019-05-05T07:54:14.460Z,37.20
2019-05-05T07:56:48.841Z,37.30
2019-05-05T07:59:24.152Z,37.30
2019-05-05T08:01:57.284Z,37.40
2019-05-05T08:04:30.128Z,37.40
2019-05-05T08:07:04.055Z,37.50
2019-05-05T08:09:39.323Z,37.50
2019-05-05T08:12:13.841Z,37.60
2019-05-05T08:14:48.379Z,37.50
2019-05-05T08:17:42.029Z,37.50
2019-05-05T08:20:19.351Z,37.40
2019-05-05T08:22:53.540Z,37.30
2019-05-05T08:25:39.645Z,37.10
2019-05-05T08:28:06.753Z,36.90
2019-05-05T08:30:41.381Z,36.70
2019-05-05T08:33:17.720Z,36.50
2019-05-05T08:35:53.612Z,36.30
2019-05-05T08:38:25.942Z,36.00
2019-05-05T08:40:58.944Z,35.80
2019-05-05T08:43:34.749Z,35.70
2019-05-05T08:46:09.203Z,35.60
2019-05-05T08:48:44.720Z,35.50
2019-05-05T08:51:17.657Z,35.40
2019-05-05T08:53:54.398Z,35.20
2019-05-05T08:56:29.969Z,35.10
2019-05-05T08:59:06.136Z,35.00
2019-05-05T09:01:44.842Z,35.00
2019-05-05T09:04:17.578Z,35.00
2019-05-05T09:06:51.377Z,35.00
2019-05-05T09:09:24.925Z,35.00
2019-05-05T09:11:59.186Z,35.00
2019-05-05T09:14:34.586Z,35.00
2019-05-05T09:17:08.972Z,35.10
2019-05-05T09:19:44.690Z,35.20
2019-05-05T09:22:17.835Z,35.20
2019-05-05T09:24:54.235Z,35.20
2019-05-05T09:27:30.126Z,35.30
2019-05-05T09:30:04.027Z,35.20
2019-05-05T09:32:38.076Z,35.10
2019-05-05T09:35:13.752Z,35.00
2019-05-05T09:37:46.121Z,34.90
2019-05-05T09:40:20.980Z,34.80
2019-05-05T09:42:54.494Z,34.70
2019-05-05T09:45:28.268Z,34.50
2019-05-05T09:48:04.248Z,34.40
2019-05-05T09:50:37.845Z,34.30
2019-05-05T09:53:10.746Z,34.20
2019-05-05T09:55:44.346Z,33.90
2019-05-05T09:58:18.170Z,33.40
2019-05-05T10:00:52.088Z,33.00
2019-05-05T10:03:26.396Z,32.70
2019-05-05T10:05:59.365Z,32.40
2019-05-05T10:08:34.313Z,32.20
2019-05-05T10:11:07.374Z,31.90
2019-05-05T10:13:41.508Z,31.70
2019-05-05T10:16:18.098Z,31.40
2019-05-05T10:18:54.193Z,31.10
2019-05-05T10:21:28.710Z,30.70
2019-05-05T10:24:04.561Z,30.50
2019-05-05T10:26:38.716Z,30.30
2019-05-05T10:29:13.605Z,30.10
2019-05-05T10:31:46.486Z,29.90
2019-05-05T10:34:21.684Z,29.80
2019-05-05T10:36:57.150Z,29.60
2019-05-05T10:39:40.136Z,29.50
2019-05-05T10:42:14.495Z,29.40
2019-05-05T10:44:47.848Z,29.30
2019-05-05T10:47:21.512Z,29.30
2019-05-05T10:49:55.914Z,29.30
2019-05-05T10:52:28.764Z,29.20
2019-05-05T10:55:04.003Z,29.10
2019-05-05T10:57:38.055Z,29.10
2019-05-05T11:00:13.160Z,29.10
2019-05-05T11:02:47.162Z,29.10
2019-05-05T11:05:20.660Z,29.20
2019-05-05T11:07:54.784Z,29.10
2019-05-05T11:10:31.047Z,29.10
2019-05-05T11:13:05.165Z,29.10
2019-05-05T11:18:14.945Z,29.10
2019-05-05T11:20:48.705Z,29.20
2019-05-05T11:23:24.785Z,29.20
2019-05-05T11:25:57.861Z,29.30
2019-05-05T11:28:33.749Z,29.40
2019-05-05T11:31:06.929Z,29.50
2019-05-05T11:33:43.593Z,29.60
2019-05-05T11:36:19.514Z,29.60
2019-05-05T11:38:53.858Z,29.70
2019-05-05T11:41:27.445Z,29.80
2019-05-05T11:44:01.023Z,29.80
2019-05-05T11:46:35.145Z,29.80
2019-05-05T11:49:07.844Z,29.70
2019-05-05T11:51:43.523Z,29.60
2019-05-05T11:54:15.570Z,29.60
2019-05-05T11:56:48.175Z,29.50
2019-05-05T11:59:23.799Z,29.50
2019-05-05T12:01:57.640Z,29.50
2019-05-05T12:04:30.392Z,29.50
2019-05-05T12:07:04.090Z,29.50
2019-05-05T12:09:39.856Z,29.50
2019-05-05T12:12:15.753Z,29.50
2019-05-05T12:14:50.066Z,29.50
2019-05-05T12:17:39.916Z,29.50
2019-05-05T12:20:13.658Z,29.50
2019-05-05T12:22:46.716Z,29.40
2019-05-05T12:25:37.087Z,29.40
2019-05-05T12:28:30.940Z,29.30
2019-05-05T12:31:21.917Z,29.20
2019-05-05T12:33:57.198Z,29.20
2019-05-05T12:36:31.280Z,29.20
2019-05-05T12:39:06.178Z,29.20
2019-05-05T12:41:39.922Z,29.20
2019-05-05T12:44:14.997Z,29.20
2019-05-05T12:47:04.888Z,29.20
2019-05-05T12:49:39.188Z,29.10
2019-05-05T12:52:13.984Z,29.20
2019-05-05T12:54:48.248Z,29.10
2019-05-05T12:57:24.019Z,29.10
2019-05-05T12:59:57.013Z,29.10
2019-05-05T13:02:30.175Z,29.10
2019-05-05T13:05:04.364Z,29.10
2019-05-05T13:07:37.424Z,29.10
2019-05-05T13:10:14.265Z,29.10
2019-05-05T13:12:47.467Z,29.10
2019-05-05T13:15:20.956Z,29.10
2019-05-05T13:17:57.303Z,29.00
2019-05-05T13:20:31.296Z,29.00
2019-05-05T13:23:05.173Z,28.90
2019-05-05T13:25:59.352Z,28.90
2019-05-05T13:28:34.423Z,28.80
2019-05-05T13:31:08.087Z,28.80
2019-05-05T13:33:44.069Z,28.70
2019-05-05T13:36:17.462Z,28.70
2019-05-05T13:38:52.099Z,28.70
2019-05-05T13:41:26.554Z,28.70
2019-05-05T13:44:01.057Z,28.70
2019-05-05T13:46:37.949Z,28.70
2019-05-05T13:49:15.810Z,28.70
2019-05-05T13:51:50.355Z,28.70
2019-05-05T13:54:24.275Z,28.60
2019-05-05T13:56:57.093Z,28.50
2019-05-05T13:59:31.083Z,28.40
2019-05-05T14:02:05.123Z,28.30
2019-05-05T14:04:38.536Z,28.30
2019-05-05T14:07:12.836Z,28.40
2019-05-05T14:09:45.870Z,28.40
2019-05-05T14:12:19.953Z,28.40
2019-05-05T14:14:54.470Z,28.40
2019-05-05T14:17:27.930Z,28.30
2019-05-05T14:20:05.426Z,28.30
2019-05-05T14:22:35.086Z,28.30
2019-05-05T14:25:26.720Z,28.30
2019-05-05T14:27:59.678Z,28.40
2019-05-05T14:30:35.327Z,28.30
2019-05-05T14:33:09.364Z,28.40
2019-05-05T14:35:46.021Z,28.30
2019-05-05T14:38:37.941Z,28.30
2019-05-05T14:41:13.488Z,28.20
2019-05-05T14:43:47.359Z,28.20
2019-05-05T14:46:19.905Z,28.20
2019-05-05T14:48:53.521Z,28.20
2019-05-05T14:51:26.527Z,28.10
2019-05-05T14:53:59.357Z,28.10
2019-05-05T14:56:36.479Z,28.00
2019-05-05T14:59:08.078Z,28.00
2019-05-05T15:01:40.598Z,28.00
2019-05-05T15:04:14.247Z,28.10
2019-05-05T15:06:51.314Z,28.10
2019-05-05T15:09:33.621Z,28.10
2019-05-05T15:12:08.292Z,28.10
2019-05-05T15:14:41.550Z,28.10
2019-05-05T15:17:14.298Z,28.10
2019-05-05T15:19:49.315Z,28.10
2019-05-05T15:22:23.895Z,28.10
2019-05-05T15:24:58.046Z,28.00
2019-05-05T15:27:30.844Z,28.00
2019-05-05T15:30:04.607Z,28.10
2019-05-05T15:32:37.447Z,28.10
2019-05-05T15:35:10.626Z,28.10
2019-05-05T15:37:43.666Z,28.10
2019-05-05T15:40:17.205Z,28.10
2019-05-05T15:42:50.096Z,28.20
2019-05-05T15:45:23.529Z,28.20
2019-05-05T15:47:57.380Z,28.10
2019-05-05T15:50:30.050Z,28.20
2019-05-05T15:53:03.809Z,28.20
2019-05-05T15:55:38.475Z,28.20
2019-05-05T15:58:14.035Z,28.20
2019-05-05T16:00:46.392Z,28.20
2019-05-05T16:03:19.402Z,28.30
2019-05-05T16:05:54.324Z,28.30
2019-05-05T16:08:30.443Z,28.30
2019-05-05T16:11:03.749Z,28.30
2019-05-05T16:13:38.679Z,28.30
2019-05-05T16:16:15.502Z,28.30
2019-05-05T16:19:01.930Z,28.30
2019-05-05T16:21:43.852Z,28.30
2019-05-05T16:24:18.895Z,28.30
2019-05-05T16:26:53.738Z,28.20
2019-05-05T16:29:27.878Z,28.20
2019-05-05T16:32:00.806Z,28.20
2019-05-05T16:34:33.711Z,28.10
2019-05-05T16:37:07.812Z,28.00
2019-05-05T16:39:43.837Z,28.00
2019-05-05T16:42:16.061Z,28.00
2019-05-05T16:44:48.934Z,27.90
2019-05-05T16:47:24.431Z,27.90
2019-05-05T16:50:00.150Z,27.90
2019-05-05T16:52:34.811Z,27.90
2019-05-05T16:55:13.455Z,27.90
2019-05-05T16:57:48.182Z,27.90
2019-05-05T17:00:25.622Z,27.90
2019-05-05T17:02:56.331Z,27.90
2019-05-05T17:05:32.009Z,27.90
2019-05-05T17:08:07.922Z,27.90
2019-05-05T17:10:43.392Z,27.90
2019-05-05T17:13:20.843Z,27.80
2019-05-05T17:15:54.838Z,27.80
2019-05-05T17:18:33.620Z,27.80
2019-05-05T17:21:13.450Z,27.80
2019-05-05T17:23:49.403Z,27.80
2019-05-05T17:26:24.283Z,27.80
2019-05-05T17:28:59.519Z,27.80
2019-05-05T17:31:33.965Z,27.80
2019-05-05T17:34:07.185Z,27.80
2019-05-05T17:36:40.213Z,27.80
2019-05-05T17:39:14.152Z,27.80
2019-05-05T17:41:53.997Z,27.80
2019-05-05T17:44:27.562Z,27.80
2019-05-05T17:47:19.381Z,27.70
2019-05-05T17:50:01.419Z,27.70
2019-05-05T17:52:36.039Z,27.70
2019-05-05T17:55:28.392Z,27.70
2019-05-05T17:58:05.385Z,27.70
2019-05-05T18:00:40.471Z,27.70
2019-05-05T18:03:14.092Z,27.70
2019-05-05T18:05:56.119Z,27.70
2019-05-05T18:08:46.731Z,27.70
2019-05-05T18:11:21.738Z,27.70
2019-05-05T18:14:14.558Z,27.80
2019-05-05T18:16:48.233Z,27.80
2019-05-05T18:19:21.004Z,27.90
2019-05-05T18:21:58.221Z,27.80
2019-05-05T18:24:33.664Z,27.80
2019-05-05T18:27:07.705Z,27.90
2019-05-05T18:29:43.463Z,27.90
2019-05-05T18:32:16.690Z,27.90
2019-05-05T18:34:50.685Z,27.90
2019-05-05T18:37:24.492Z,27.90
2019-05-05T18:39:58.242Z,28.00
2019-05-05T18:42:33.857Z,27.90
2019-05-05T18:45:09.582Z,28.00
2019-05-05T18:47:43.385Z,27.90
2019-05-05T18:50:17.161Z,27.90
2019-05-05T18:52:51.249Z,27.90
2019-05-05T18:55:25.412Z,27.90
2019-05-05T18:57:59.728Z,27.90
2019-05-05T19:00:50.194Z,27.90
2019-05-05T19:03:27.444Z,27.80
2019-05-05T19:06:11.054Z,27.80
2019-05-05T19:08:54.266Z,27.80
2019-05-05T19:11:24.470Z,27.80
2019-05-05T19:13:56.537Z,27.80
2019-05-05T19:16:30.731Z,27.80
2019-05-05T19:19:03.747Z,27.90
2019-05-05T19:21:58.045Z,27.90
2019-05-05T19:24:35.160Z,27.80
2019-05-05T19:27:07.328Z,27.80
2019-05-05T19:29:45.985Z,27.80
2019-05-05T19:32:17.704Z,27.80
2019-05-05T19:34:50.405Z,27.80
2019-05-05T19:37:24.239Z,27.80
2019-05-05T19:39:57.986Z,27.80
2019-05-05T19:42:31.985Z,27.80
2019-05-05T19:45:05.909Z,27.80
2019-05-05T19:47:39.798Z,27.80
2019-05-05T19:50:18.353Z,27.80
2019-05-05T19:52:53.690Z,27.80
2019-05-05T19:55:25.131Z,27.80
2019-05-05T19:57:57.957Z,27.80
2019-05-05T20:00:35.166Z,27.80
2019-05-05T20:03:10.829Z,27.80
2019-05-05T20:05:46.791Z,27.80
2019-05-05T20:08:20.596Z,27.70
2019-05-05T20:10:54.435Z,27.70
2019-05-05T20:13:28.756Z,27.70
2019-05-05T20:16:20.843Z,27.70
2019-05-05T20:18:56.818Z,27.70
2019-05-05T20:21:30.694Z,27.70
2019-05-05T20:24:03.719Z,27.70
2019-05-05T20:26:36.572Z,27.70
2019-05-05T20:29:14.135Z,27.60
2019-05-05T20:31:44.382Z,27.70
2019-05-05T20:34:19.195Z,27.70
2019-05-05T20:37:09.264Z,27.60
2019-05-05T20:39:43.912Z,27.60
2019-05-05T20:42:16.264Z,27.60
2019-05-05T20:44:50.217Z,27.60
2019-05-05T20:47:24.022Z,27.50
2019-05-05T20:49:56.970Z,27.50
2019-05-05T20:52:29.698Z,27.50
2019-05-05T20:55:04.776Z,27.50
2019-05-05T20:57:38.239Z,27.50
2019-05-05T21:00:14.535Z,27.50
2019-05-05T21:02:47.546Z,27.50
2019-05-05T21:05:21.634Z,27.50
2019-05-05T21:07:55.590Z,27.50
2019-05-05T21:10:29.411Z,27.50
2019-05-05T21:13:05.073Z,27.50
2019-05-05T21:15:41.069Z,27.50
2019-05-05T21:18:14.782Z,27.50
2019-05-05T21:20:50.286Z,27.50
2019-05-05T21:23:27.172Z,27.40
2019-05-05T21:26:16.593Z,27.40
2019-05-05T21:28:49.575Z,27.40
2019-05-05T21:31:23.927Z,27.40
2019-05-05T21:33:57.127Z,27.40
2019-05-05T21:36:31.208Z,27.40
2019-05-05T21:39:04.206Z,27.40
2019-05-05T21:41:38.332Z,27.40
2019-05-05T21:44:11.450Z,27.40
2019-05-05T21:46:46.031Z,27.40
2019-05-05T21:49:20.517Z,27.40
2019-05-05T21:51:54.382Z,27.40
2019-05-05T21:54:43.929Z,27.40
2019-05-05T21:57:37.680Z,27.30
2019-05-05T22:00:13.962Z,27.40
2019-05-05T22:02:48.654Z,27.30
2019-05-05T22:05:21.494Z,27.40
2019-05-05T22:07:57.233Z,27.40
2019-05-05T22:10:31.032Z,27.40
2019-05-05T22:13:05.075Z,27.30
2019-05-05T22:15:38.355Z,27.40
2019-05-05T22:18:11.849Z,27.40
2019-05-05T22:21:04.475Z,27.40
2019-05-05T22:23:39.137Z,27.40
2019-05-05T22:26:14.608Z,27.40
2019-05-05T22:28:48.775Z,27.40
2019-05-05T22:31:23.796Z,27.40
2019-05-05T22:33:57.614Z,27.30
2019-05-05T22:36:30.408Z,27.40
2019-05-05T22:39:03.189Z,27.30
2019-05-05T22:41:36.560Z,27.30
2019-05-05T22:44:10.310Z,27.30
2019-05-05T22:46:44.352Z,27.40
2019-05-05T22:49:18.424Z,27.40
2019-05-05T22:51:54.030Z,27.40
2019-05-05T22:54:29.636Z,27.30
2019-05-05T22:57:04.598Z,27.30
2019-05-05T22:59:40.753Z,27.30
2019-05-05T23:02:17.308Z,27.30
2019-05-05T23:04:54.563Z,27.30
2019-05-05T23:07:44.534Z,27.30
2019-05-05T23:10:20.222Z,27.30
2019-05-05T23:12:54.403Z,27.40
2019-05-05T23:15:27.932Z,27.30
2019-05-05T23:18:03.844Z,27.30
2019-05-05T23:21:15.626Z,27.30
2019-05-05T23:24:07.714Z,27.30
2019-05-05T23:26:43.760Z,27.40
2019-05-05T23:29:17.705Z,27.40
2019-05-05T23:31:50.240Z,27.40
2019-05-05T23:34:27.136Z,27.40
2019-05-05T23:37:04.211Z,27.40
2019-05-05T23:39:35.987Z,27.40
2019-05-05T23:42:08.619Z,27.40
2019-05-05T23:44:45.199Z,27.40
2019-05-05T23:47:17.942Z,27.50
2019-05-05T23:49:50.684Z,27.50
2019-05-05T23:52:24.831Z,27.50
2019-05-05T23:54:58.863Z,27.50
2019-05-05T23:57:31.604Z,27.50
